Time;durP1;ratioP1;P1;durP2;ratioP2;P2;SDS_P1;SDS_P2;PMS_P1;PMS_P2;Temp;Humidity;BMP_temperature;BMP_pressure;BME280_temperature;BME280_humidity;BME280_pressure;Samples;Min_cycle;Max_cycle;Signal;HPM_P1;HPM_P2
2023/07/10 00:01:13;;;;;;;16.00;3.60;;;;;;;19.27;100.00;101845.25;5013011;28;20029;-70
2023/07/10 00:03:39;;;;;;;17.02;3.63;;;;;;;19.11;100.00;101851.78;5013305;28;20061;-70
2023/07/10 00:06:08;;;;;;;13.32;3.47;;;;;;;19.14;100.00;101854.41;5013139;28;20026;-70
2023/07/10 00:08:33;;;;;;;13.02;3.60;;;;;;;19.16;100.00;101853.47;4995987;28;20030;-70
2023/07/10 00:10:59;;;;;;;16.10;3.63;;;;;;;19.13;100.00;101864.25;5013265;28;20061;-64
2023/07/10 00:13:25;;;;;;;15.65;3.90;;;;;;;19.12;100.00;101862.47;5013320;28;20500;-71
2023/07/10 00:15:54;;;;;;;14.88;3.60;;;;;;;19.07;100.00;101863.44;5013232;28;20034;-70
2023/07/10 00:18:22;;;;;;;16.80;3.60;;;;;;;19.11;100.00;101860.69;5013170;28;20460;-69
2023/07/10 00:20:47;;;;;;;15.25;3.83;;;;;;;19.06;100.00;101862.56;5013097;28;20026;-70
2023/07/10 00:23:17;;;;;;;15.88;3.67;;;;;;;19.04;100.00;101866.16;5012966;28;20041;-69
2023/07/10 00:25:43;;;;;;;16.92;3.85;;;;;;;19.00;100.00;101868.00;5013079;28;20381;-69
2023/07/10 00:28:19;;;;;;;15.73;4.00;;;;;;;18.89;100.00;101864.59;5013075;28;20104;-65
2023/07/10 00:30:47;;;;;;;16.20;3.70;;;;;;;18.77;100.00;101862.94;5012769;28;20109;-68
2023/07/10 00:33:14;;;;;;;15.95;4.00;;;;;;;18.74;100.00;101861.19;5012767;28;20030;-67
2023/07/10 00:35:40;;;;;;;16.17;3.97;;;;;;;18.76;100.00;101859.38;5012937;28;20129;-68
2023/07/10 00:38:23;;;;;;;16.73;4.00;;;;;;;18.75;100.00;101854.91;5012641;28;20536;-69
2023/07/10 00:40:49;;;;;;;15.50;3.80;;;;;;;18.72;100.00;101849.59;5012785;28;20041;-69
2023/07/10 00:43:17;;;;;;;16.10;3.70;;;;;;;18.59;100.00;101861.38;5012682;28;20021;-68
2023/07/10 00:45:43;;;;;;;13.63;3.72;;;;;;;18.50;100.00;101861.53;5013127;28;20026;-68
2023/07/10 00:48:24;;;;;;;14.75;3.75;;;;;;;18.45;100.00;101865.13;5012890;28;20536;-69
2023/07/10 00:50:50;;;;;;;17.92;4.15;;;;;;;18.35;100.00;101866.16;5012729;28;20030;-69
2023/07/10 00:53:29;;;;;;;16.77;3.78;;;;;;;18.27;100.00;101866.22;5012511;28;20040;-69
2023/07/10 00:56:00;;;;;;;16.08;3.80;;;;;;;18.26;100.00;101864.47;5012794;28;20058;-67
2023/07/10 00:58:38;;;;;;;16.13;3.80;;;;;;;18.32;100.00;101859.94;5008819;28;20030;-69
2023/07/10 01:01:08;;;;;;;15.10;3.83;;;;;;;18.39;100.00;101864.31;5009793;28;20476;-68
2023/07/10 01:03:35;;;;;;;14.40;3.88;;;;;;;18.39;100.00;101859.88;5012478;28;20029;-68
2023/07/10 01:06:08;;;;;;;14.98;3.80;;;;;;;18.43;100.00;101861.56;5012523;28;20041;-67
2023/07/10 01:08:37;;;;;;;18.80;4.18;;;;;;;18.35;100.00;101855.44;5012878;28;20029;-68
2023/07/10 01:11:02;;;;;;;17.05;4.30;;;;;;;18.36;100.00;101864.34;5012503;28;20018;-67
2023/07/10 01:13:28;;;;;;;15.15;4.00;;;;;;;18.39;100.00;101861.63;5014257;28;20389;-68
2023/07/10 01:15:53;;;;;;;16.73;3.85;;;;;;;18.37;100.00;101867.00;5016341;28;20030;-68
2023/07/10 01:18:19;;;;;;;14.32;3.83;;;;;;;18.36;100.00;101861.69;5016049;28;20084;-68
2023/07/10 01:20:47;;;;;;;13.27;3.63;;;;;;;18.31;100.00;101872.44;5016066;28;20038;-69
2023/07/10 01:23:12;;;;;;;15.20;3.75;;;;;;;18.34;100.00;101863.50;5016236;28;20054;-69
2023/07/10 01:25:58;;;;;;;12.30;3.50;;;;;;;18.38;100.00;101859.88;5015954;28;20121;-68
2023/07/10 01:28:24;;;;;;;14.27;3.75;;;;;;;18.41;100.00;101857.16;5011876;28;20030;-69
2023/07/10 01:30:55;;;;;;;13.65;3.70;;;;;;;18.38;100.00;101858.09;5015905;28;20362;-69
2023/07/10 01:33:25;;;;;;;13.60;3.70;;;;;;;18.37;100.00;101858.97;5016020;28;20037;-69
2023/07/10 01:35:55;;;;;;;14.38;3.63;;;;;;;18.34;100.00;101845.63;5015795;28;20026;-69
2023/07/10 01:38:27;;;;;;;14.50;3.60;;;;;;;18.42;100.00;101845.53;5015624;28;20033;-69
2023/07/10 01:40:55;;;;;;;10.13;3.25;;;;;;;18.39;100.00;101846.47;5015693;28;20041;-69
2023/07/10 01:43:21;;;;;;;14.82;3.63;;;;;;;18.31;100.00;101845.69;5016095;28;20026;-68
2023/07/10 01:45:48;;;;;;;13.43;3.60;;;;;;;18.28;100.00;101848.41;5015648;28;20443;-66
2023/07/10 01:48:16;;;;;;;13.88;3.83;;;;;;;18.18;100.00;101862.78;5015579;28;20083;-69
2023/07/10 01:50:42;;;;;;;13.00;3.58;;;;;;;18.14;100.00;101863.72;5015761;28;20080;-69
2023/07/10 01:53:09;;;;;;;16.48;3.72;;;;;;;18.07;100.00;101863.78;5015403;28;20513;-69
2023/07/10 01:55:43;;;;;;;14.02;3.45;;;;;;;18.07;100.00;101870.91;5015696;28;20038;-69
2023/07/10 01:58:12;;;;;;;16.45;3.83;;;;;;;18.07;100.00;101860.22;5015490;28;20026;-69
2023/07/10 02:00:39;;;;;;;14.25;3.60;;;;;;;18.11;100.00;101862.88;5015320;28;20038;-69
2023/07/10 02:03:04;;;;;;;14.75;4.00;;;;;;;18.03;100.00;101856.69;5015287;28;20030;-68
2023/07/10 02:05:30;;;;;;;14.20;4.13;;;;;;;17.88;100.00;101856.81;5015314;28;20041;-68
2023/07/10 02:07:55;;;;;;;15.15;3.80;;;;;;;17.90;100.00;101855.94;5015229;28;20029;-69
2023/07/10 02:10:20;;;;;;;14.57;4.05;;;;;;;17.79;100.00;101855.13;5015098;28;20466;-68
2023/07/10 02:12:46;;;;;;;14.90;4.18;;;;;;;17.64;100.00;101858.81;5015249;28;20438;-69
2023/07/10 02:15:11;;;;;;;15.27;4.20;;;;;;;17.55;100.00;101851.78;5015113;28;20442;-69
2023/07/10 02:17:36;;;;;;;14.75;3.90;;;;;;;17.59;100.00;101855.28;5015007;28;20041;-69
2023/07/10 02:20:02;;;;;;;14.55;4.00;;;;;;;17.52;100.00;101865.16;5015195;28;20473;-70
2023/07/10 02:22:27;;;;;;;16.83;4.53;;;;;;;17.46;100.00;101864.31;5014994;28;20034;-70
2023/07/10 02:24:53;;;;;;;14.95;4.30;;;;;;;17.37;100.00;101866.19;5014789;28;20030;-70
2023/07/10 02:27:18;;;;;;;15.65;4.40;;;;;;;17.23;100.00;101884.09;5015072;28;20491;-70
2023/07/10 02:29:44;;;;;;;15.40;4.55;;;;;;;17.14;100.00;101889.50;5014558;28;20108;-70
2023/07/10 02:32:10;;;;;;;15.95;4.43;;;;;;;17.05;100.00;101895.78;5014629;28;20072;-65
2023/07/10 02:34:35;;;;;;;16.85;4.50;;;;;;;17.08;100.00;101885.97;5014889;28;20508;-70
2023/07/10 02:37:00;;;;;;;17.10;4.45;;;;;;;17.08;100.00;101888.66;5014638;28;20054;-69
2023/07/10 02:39:26;;;;;;;18.08;4.78;;;;;;;17.07;100.00;101886.00;5014800;28;20097;-70
2023/07/10 02:41:51;;;;;;;16.73;4.38;;;;;;;17.11;100.00;101890.41;5014803;28;20026;-70
2023/07/10 02:44:16;;;;;;;18.35;4.72;;;;;;;17.19;100.00;101882.34;5014476;28;20500;-70
2023/07/10 02:46:42;;;;;;;16.00;4.70;;;;;;;17.08;100.00;101885.97;5014683;28;20054;-70
2023/07/10 02:49:07;;;;;;;17.83;4.72;;;;;;;17.16;100.00;101875.22;5014309;28;20092;-70
2023/07/10 02:51:32;;;;;;;17.42;4.93;;;;;;;17.14;100.00;101884.16;5014554;28;20087;-69
2023/07/10 02:53:58;;;;;;;16.35;5.10;;;;;;;17.15;100.00;101880.59;4996920;28;20034;-70
2023/07/10 02:56:23;;;;;;;16.40;5.15;;;;;;;17.15;100.00;101888.59;5014323;28;20030;-70
2023/07/10 02:58:50;;;;;;;18.10;5.57;;;;;;;17.11;100.00;101890.41;5014144;28;20123;-70
2023/07/10 03:01:15;;;;;;;17.05;5.22;;;;;;;17.13;100.00;101890.41;5014351;28;20026;-70
2023/07/10 03:03:45;;;;;;;17.30;5.63;;;;;;;16.97;100.00;101900.28;5014412;28;20034;-69
2023/07/10 03:06:11;;;;;;;20.52;7.22;;;;;;;16.89;100.00;101908.31;5014188;28;20034;-69
2023/07/10 03:08:36;;;;;;;20.10;8.02;;;;;;;16.77;100.00;101890.56;5014248;28;20026;-69
2023/07/10 03:11:07;;;;;;;21.48;9.65;;;;;;;16.73;100.00;101900.38;5014001;28;20465;-69
2023/07/10 03:13:33;;;;;;;20.48;9.07;;;;;;;16.64;100.00;101899.50;5013977;28;20021;-69
2023/07/10 03:16:04;;;;;;;22.85;10.00;;;;;;;16.56;100.00;101907.56;5014167;28;20041;-68
2023/07/10 03:18:30;;;;;;;22.00;10.45;;;;;;;16.53;100.00;101913.78;5010437;28;20128;-69
2023/07/10 03:20:55;;;;;;;23.38;10.75;;;;;;;16.50;100.00;101912.94;5009753;28;20479;-69
2023/07/10 03:23:20;;;;;;;21.98;10.27;;;;;;;16.45;100.00;101917.38;5014273;28;20059;-67
2023/07/10 03:25:46;;;;;;;22.42;10.23;;;;;;;16.46;100.00;101924.50;5014047;28;20034;-69
2023/07/10 03:28:11;;;;;;;23.48;10.63;;;;;;;16.44;100.00;101926.28;5013700;28;20060;-68
2023/07/10 03:30:37;;;;;;;22.63;11.00;;;;;;;16.42;100.00;101925.41;5013747;28;20078;-69
2023/07/10 03:33:03;;;;;;;23.63;11.40;;;;;;;16.36;100.00;101927.19;5013584;28;20033;-69
2023/07/10 03:35:28;;;;;;;23.13;11.43;;;;;;;16.36;100.00;101919.16;4995647;28;20045;-69
2023/07/10 03:37:53;;;;;;;22.70;11.20;;;;;;;16.29;100.00;101924.53;5013643;28;20030;-69
2023/07/10 03:40:19;;;;;;;23.85;11.15;;;;;;;16.26;100.00;101927.22;5013544;28;20117;-69
2023/07/10 03:42:44;;;;;;;23.48;11.32;;;;;;;16.23;100.00;101921.88;5013492;28;20037;-62
2023/07/10 03:45:09;;;;;;;23.38;11.07;;;;;;;16.25;100.00;101926.34;5013606;28;20062;-69
2023/07/10 03:47:35;;;;;;;22.80;10.70;;;;;;;16.26;100.00;101927.22;5013396;28;20033;-69
2023/07/10 03:50:00;;;;;;;22.35;10.70;;;;;;;16.28;100.00;101928.09;5013682;28;20033;-69
2023/07/10 03:52:25;;;;;;;23.45;10.98;;;;;;;16.28;100.00;101928.09;5009321;28;20033;-69
2023/07/10 03:54:51;;;;;;;22.90;11.45;;;;;;;16.23;100.00;101936.09;5013264;28;20056;-68
2023/07/10 03:57:16;;;;;;;22.85;10.75;;;;;;;16.23;100.00;101930.78;5013365;28;20072;-69
2023/07/10 03:59:41;;;;;;;22.65;10.63;;;;;;;16.23;100.00;101932.56;5013146;28;20022;-69
2023/07/10 04:02:07;;;;;;;21.85;10.57;;;;;;;16.19;100.00;101940.56;5013122;28;20034;-69
2023/07/10 04:04:32;;;;;;;21.48;10.18;;;;;;;16.13;100.00;101948.56;5013298;28;20080;-69
2023/07/10 04:06:57;;;;;;;22.52;10.43;;;;;;;16.12;100.00;101953.91;4995565;28;20026;-69
2023/07/10 04:09:23;;;;;;;23.05;10.25;;;;;;;16.04;100.00;101946.78;5012973;28;20452;-69
2023/07/10 04:11:48;;;;;;;22.48;9.85;;;;;;;16.04;100.00;101952.13;5013264;28;20446;-69
2023/07/10 04:14:13;;;;;;;23.05;10.27;;;;;;;16.06;100.00;101959.25;4995493;28;20037;-69
2023/07/10 04:16:39;;;;;;;22.20;9.75;;;;;;;16.07;100.00;101963.69;5013126;28;20041;-67
2023/07/10 04:19:04;;;;;;;21.23;10.20;;;;;;;16.08;100.00;101962.81;5013115;28;20069;-68
2023/07/10 04:21:31;;;;;;;22.48;10.30;;;;;;;16.17;100.00;101961.00;5012829;28;20034;-69
2023/07/10 04:23:57;;;;;;;23.13;10.25;;;;;;;16.25;100.00;101947.69;5009194;28;20029;-69
2023/07/10 04:26:25;;;;;;;22.95;10.30;;;;;;;16.31;100.00;101955.66;5012906;28;20026;-68
2023/07/10 04:28:54;;;;;;;22.25;10.07;;;;;;;16.27;100.00;101961.88;5012589;28;20050;-69
2023/07/10 04:31:20;;;;;;;22.80;10.90;;;;;;;16.34;100.00;101950.31;5012853;28;20041;-61
2023/07/10 04:33:45;;;;;;;25.65;11.52;;;;;;;16.44;100.00;101945.84;5012933;28;20030;-69
2023/07/10 04:36:11;;;;;;;23.00;11.32;;;;;;;16.49;100.00;101954.72;5012839;28;20026;-67
2023/07/10 04:38:37;;;;;;;23.20;11.77;;;;;;;16.52;100.00;101954.72;5012995;28;20037;-69
2023/07/10 04:41:05;;;;;;;23.35;11.93;;;;;;;16.58;100.00;101956.47;5013048;28;20026;-62
2023/07/10 04:43:32;;;;;;;24.27;12.02;;;;;;;16.59;100.00;101955.59;5012767;28;20026;-67
2023/07/10 04:45:59;;;;;;;25.27;12.25;;;;;;;16.69;100.00;101956.47;5009219;28;20026;-66
2023/07/10 04:48:25;;;;;;;24.23;12.77;;;;;;;16.69;100.00;101961.81;5014675;28;20041;-68
2023/07/10 04:50:53;;;;;;;23.75;12.55;;;;;;;16.65;100.00;101960.91;5016696;28;20679;-63
2023/07/10 04:53:18;;;;;;;23.63;12.13;;;;;;;16.61;100.00;101958.25;5014678;28;20398;-62
2023/07/10 04:55:44;;;;;;;25.15;12.57;;;;;;;16.59;100.00;101966.28;5012584;28;20528;-63
2023/07/10 04:58:10;;;;;;;22.55;12.55;;;;;;;16.54;100.00;101965.38;5025492;28;20041;-67
2023/07/10 05:00:36;;;;;;;24.95;12.88;;;;;;;16.52;100.00;101967.19;5020960;28;20370;-64
2023/07/10 05:03:03;;;;;;;24.92;12.70;;;;;;;16.51;100.00;101976.97;5017103;28;20030;-64
2023/07/10 05:05:29;;;;;;;25.45;12.82;;;;;;;16.52;100.00;101972.50;5018980;28;20072;-68
2023/07/10 05:07:54;;;;;;;23.83;12.63;;;;;;;16.47;100.00;101979.63;5019680;28;20570;-65
2023/07/10 05:10:19;;;;;;;24.55;12.68;;;;;;;16.50;100.00;101977.84;5018334;28;20103;-65
2023/07/10 05:12:45;;;;;;;24.65;13.02;;;;;;;16.51;100.00;101976.06;5016290;28;20392;-65
2023/07/10 05:15:11;;;;;;;24.02;12.68;;;;;;;16.50;100.00;101980.53;5018939;28;20038;-63
2023/07/10 05:17:36;;;;;;;24.55;13.13;;;;;;;16.52;100.00;101981.41;5020720;28;20362;-62
2023/07/10 05:20:02;;;;;;;24.17;12.70;;;;;;;16.55;100.00;101983.19;5017331;28;20491;-62
2023/07/10 05:22:28;;;;;;;24.00;13.40;;;;;;;16.63;100.00;101984.06;5019371;28;20026;-68
2023/07/10 05:24:53;;;;;;;23.33;12.55;;;;;;;16.68;100.00;101990.25;5014975;28;20032;-66
2023/07/10 05:27:18;;;;;;;24.67;13.02;;;;;;;16.71;100.00;101984.91;5012447;28;20026;-67
2023/07/10 05:29:44;;;;;;;27.58;12.55;;;;;;;16.77;100.00;101993.81;5012445;28;20053;-63
2023/07/10 05:32:09;;;;;;;24.80;12.73;;;;;;;16.77;100.00;102000.03;5001975;28;20030;-65
2023/07/10 05:34:34;;;;;;;23.23;12.63;;;;;;;16.81;100.00;101991.13;4988117;28;20026;-64
2023/07/10 05:37:00;;;;;;;23.65;12.55;;;;;;;16.87;100.00;101992.88;4987311;28;20117;-65
2023/07/10 05:39:27;;;;;;;24.92;12.70;;;;;;;16.87;100.00;101995.53;4985151;28;20046;-68
2023/07/10 05:41:52;;;;;;;24.65;12.13;;;;;;;16.92;100.00;101985.78;4988103;28;20033;-66
2023/07/10 05:44:18;;;;;;;24.88;12.23;;;;;;;16.95;100.00;101987.53;4987961;28;20034;-66
2023/07/10 05:46:43;;;;;;;23.05;11.15;;;;;;;17.06;100.00;101986.59;4987828;28;20062;-74
2023/07/10 05:49:08;;;;;;;22.30;9.18;;;;;;;17.07;100.00;101983.03;4995061;28;20081;-62
2023/07/10 05:51:34;;;;;;;22.45;10.40;;;;;;;17.12;100.00;101983.00;4991404;28;20027;-64
2023/07/10 05:53:59;;;;;;;21.05;9.38;;;;;;;17.12;100.00;101980.31;4990392;28;20034;-66
2023/07/10 05:56:24;;;;;;;22.08;9.60;;;;;;;17.19;100.00;101981.19;4984550;28;20114;-71
2023/07/10 05:58:50;;;;;;;21.45;9.40;;;;;;;17.24;100.00;101982.03;4990592;28;20520;-70
2023/07/10 06:01:15;;;;;;;22.55;9.40;;;;;;;17.25;100.00;101984.72;4984208;28;20033;-65
2023/07/10 06:03:41;;;;;;;21.48;8.90;;;;;;;17.30;100.00;101982.03;4987064;28;20117;-61
2023/07/10 06:06:06;;;;;;;22.35;9.32;;;;;;;17.32;100.00;101979.34;4988127;28;20062;-64
2023/07/10 06:08:33;;;;;;;22.70;9.00;;;;;;;17.40;100.00;101981.09;4986113;28;20031;-61
2023/07/10 06:10:59;;;;;;;19.60;8.27;;;;;;;17.43;100.00;101991.75;4985967;28;20478;-61
2023/07/10 06:13:25;;;;;;;21.48;8.60;;;;;;;17.53;100.00;101989.91;4985083;28;20031;-61
2023/07/10 06:15:54;;;;;;;20.25;8.18;;;;;;;17.56;100.00;101983.63;4969295;28;20038;-66
2023/07/10 06:18:20;;;;;;;21.25;8.50;;;;;;;17.70;100.00;101991.56;4984301;28;20466;-68
2023/07/10 06:20:55;;;;;;;20.88;7.80;;;;;;;17.74;100.00;101991.53;4987523;28;20375;-70
2023/07/10 06:23:21;;;;;;;22.02;8.77;;;;;;;17.72;100.00;101990.69;4988137;28;20467;-71
2023/07/10 06:25:46;;;;;;;21.63;8.50;;;;;;;17.75;100.00;102001.34;4986966;28;20474;-65
2023/07/10 06:28:13;;;;;;;21.50;8.48;;;;;;;17.78;100.00;102000.44;4983663;28;20039;-67
2023/07/10 06:30:42;;;;;;;21.20;8.20;;;;;;;17.88;100.00;101998.56;4989944;28;20505;-66
2023/07/10 06:33:08;;;;;;;21.20;7.85;;;;;;;17.96;100.00;102007.47;4995317;28;20026;-70
2023/07/10 06:35:34;;;;;;;21.33;8.10;;;;;;;17.99;100.00;102010.09;4995218;28;20076;-68
2023/07/10 06:37:59;;;;;;;21.38;8.18;;;;;;;17.99;100.00;101993.19;4994901;28;20128;-66
2023/07/10 06:40:24;;;;;;;21.42;8.02;;;;;;;18.03;100.00;102010.97;4995062;28;20030;-61
2023/07/10 06:42:50;;;;;;;21.45;7.20;;;;;;;18.03;100.00;102014.53;4994900;28;20501;-61
2023/07/10 06:45:15;;;;;;;19.90;7.13;;;;;;;18.03;100.00;102006.50;4994838;28;20030;-62
2023/07/10 06:47:43;;;;;;;20.70;7.40;;;;;;;18.12;100.00;102000.19;4977506;28;20026;-61
2023/07/10 06:50:12;;;;;;;20.05;7.15;;;;;;;18.16;100.00;102003.72;4994277;28;20030;-64
2023/07/10 06:52:39;;;;;;;21.75;7.03;;;;;;;18.21;100.00;102007.25;4994684;28;20034;-63
2023/07/10 06:55:06;;;;;;;19.33;6.38;;;;;;;18.25;100.00;102000.97;4994530;28;20033;-63
2023/07/10 06:57:32;;;;;;;19.92;6.68;;;;;;;18.33;100.00;102003.56;4994536;28;20455;-69
2023/07/10 06:59:57;;;;;;;18.38;5.95;;;;;;;18.42;100.00;102008.81;4994811;28;20062;-63
2023/07/10 07:02:23;;;;;;;20.77;6.10;;;;;;;18.55;100.00;102021.19;4995142;28;20433;-62
2023/07/10 07:04:49;;;;;;;18.35;5.30;;;;;;;18.61;100.00;102017.53;4995710;28;20032;-62
2023/07/10 07:07:15;;;;;;;20.42;5.88;;;;;;;18.66;100.00;102004.13;4995717;28;20033;-64
2023/07/10 07:09:40;;;;;;;18.35;5.45;;;;;;;18.68;100.00;102005.88;4994576;28;20109;-60
2023/07/10 07:12:06;;;;;;;19.13;5.53;;;;;;;18.72;100.00;102004.94;4995824;28;20458;-62
2023/07/10 07:14:31;;;;;;;19.73;5.72;;;;;;;18.79;100.00;102009.31;4998950;28;20036;-60
2023/07/10 07:16:57;;;;;;;19.98;5.93;;;;;;;18.92;100.00;102006.53;4978634;28;20026;-62
2023/07/10 07:19:22;;;;;;;20.00;5.93;;;;;;;19.04;100.00;102008.19;4997281;28;20053;-65
2023/07/10 07:21:47;;;;;;;20.02;5.80;;;;;;;19.10;100.00;102014.31;4976396;28;20041;-62
2023/07/10 07:24:13;;;;;;;19.83;6.07;;;;;;;19.13;100.00;102021.44;4995098;28;20382;-63
2023/07/10 07:26:38;;;;;;;18.38;5.65;;;;;;;19.15;100.00;102017.84;4996995;28;20034;-61
2023/07/10 07:29:04;;;;;;;20.08;5.90;;;;;;;19.24;100.00;102015.97;4993458;28;20550;-63
2023/07/10 07:31:29;;;;;;;20.80;5.78;;;;;;;19.36;100.00;102026.50;4995302;28;20046;-65
2023/07/10 07:33:54;;;;;;;20.48;6.10;;;;;;;19.33;100.00;102035.47;4997615;28;20389;-62
2023/07/10 07:36:20;;;;;;;20.48;6.20;;;;;;;19.34;100.00;102039.94;4977748;28;20132;-64
2023/07/10 07:38:46;;;;;;;19.75;5.97;;;;;;;19.34;100.00;102036.38;4993864;28;20068;-65
2023/07/10 07:41:11;;;;;;;20.48;6.10;;;;;;;19.42;100.00;102038.94;4994544;28;20050;-63
2023/07/10 07:43:37;;;;;;;21.08;5.97;;;;;;;19.47;100.00;102037.97;4999553;28;20482;-68
2023/07/10 07:46:02;;;;;;;19.50;6.15;;;;;;;19.52;100.00;102033.41;4993427;28;20031;-66
2023/07/10 07:48:27;;;;;;;20.50;6.30;;;;;;;19.57;100.00;102035.16;4993213;28;20053;-67
2023/07/10 07:50:59;;;;;;;19.98;6.50;;;;;;;19.61;100.00;102031.53;4993381;28;20038;-67
2023/07/10 07:53:25;;;;;;;19.37;5.80;;;;;;;19.78;100.00;102033.97;4993151;28;20034;-66
2023/07/10 07:55:51;;;;;;;19.23;5.45;;;;;;;19.88;100.00;102032.03;4993399;28;20034;-66
2023/07/10 07:58:16;;;;;;;18.58;5.30;;;;;;;19.92;100.00;102029.31;4976073;28;20105;-69
2023/07/10 08:00:42;;;;;;;19.80;5.90;;;;;;;20.03;100.00;102021.94;4993547;28;20084;-67
2023/07/10 08:03:09;;;;;;;18.40;4.93;;;;;;;20.15;100.00;102012.81;4993402;28;20070;-68
2023/07/10 08:05:35;;;;;;;18.13;4.70;;;;;;;20.27;100.00;102011.72;4993676;28;20441;-68
2023/07/10 08:08:00;;;;;;;17.67;4.75;;;;;;;20.44;100.00;102011.41;4992984;28;20037;-67
2023/07/10 08:10:26;;;;;;;19.20;4.90;;;;;;;20.55;100.00;102014.78;4993353;28;20038;-66
2023/07/10 08:12:52;;;;;;;18.80;4.50;;;;;;;20.67;100.00;102007.44;4993857;28;20397;-67
2023/07/10 08:15:17;;;;;;;20.42;5.43;;;;;;;20.77;100.00;102013.53;4993438;28;20033;-68
2023/07/10 08:17:43;;;;;;;18.35;5.68;;;;;;;20.78;100.00;102009.91;4993439;28;20030;-66
2023/07/10 08:20:08;;;;;;;20.13;4.57;;;;;;;20.85;100.00;102006.16;4993322;28;20076;-68
2023/07/10 08:22:34;;;;;;;18.27;4.70;;;;;;;21.00;100.00;102007.66;4993058;28;20031;-67
2023/07/10 08:25:01;;;;;;;17.35;4.53;;;;;;;21.09;100.00;102007.47;4993518;28;20027;-70
2023/07/10 08:27:26;;;;;;;19.23;4.97;;;;;;;21.19;100.00;102009.03;4993169;28;20497;-71
2023/07/10 08:29:52;;;;;;;18.27;4.80;;;;;;;21.25;100.00;102008.91;5003631;28;20069;-72
2023/07/10 08:32:17;;;;;;;15.30;4.10;;;;;;;21.22;100.00;102014.34;5013044;28;20022;-68
2023/07/10 08:34:43;;;;;;;18.65;4.10;;;;;;;21.36;100.00;102019.44;5012803;28;20484;-73
2023/07/10 08:37:08;;;;;;;17.00;4.30;;;;;;;21.42;100.00;102016.59;5012792;28;20030;-71
2023/07/10 08:39:33;;;;;;;17.05;3.90;;;;;;;21.51;100.00;102010.16;4995306;28;20088;-73
2023/07/10 08:42:05;;;;;;;16.50;4.10;;;;;;;21.71;100.00;102011.50;5012887;28;20170;-70
2023/07/10 08:44:35;;;;;;;18.48;4.00;;;;;;;21.90;100.00;102012.81;5012738;28;20034;-73
2023/07/10 08:47:04;;;;;;;17.30;4.10;;;;;;;22.06;100.00;102023.19;5013189;28;20468;-72
2023/07/10 08:49:37;;;;;;;18.20;4.38;;;;;;;21.93;100.00;102014.53;5012819;28;20032;-71
2023/07/10 08:52:07;;;;;;;17.75;3.83;;;;;;;22.06;100.00;102012.41;5008883;28;20097;-67
2023/07/10 08:54:32;;;;;;;18.70;4.07;;;;;;;22.08;97.40;102005.22;5008625;28;20481;-67
2023/07/10 08:57:22;;;;;;;18.75;4.53;;;;;;;22.07;100.00;102012.38;5012764;28;20026;-67
2023/07/10 08:59:58;;;;;;;18.52;4.13;;;;;;;22.12;100.00;102006.91;5010973;28;20080;-68
2023/07/10 09:02:49;;;;;;;14.38;3.13;;;;;;;22.23;86.18;102018.25;5012748;28;20112;-68
2023/07/10 09:05:29;;;;;;;14.52;3.25;;;;;;;22.18;84.17;102017.50;5010572;28;20057;-68
2023/07/10 09:08:01;;;;;;;13.82;3.05;;;;;;;22.26;84.40;102020.88;5012728;28;20084;-68
2023/07/10 09:10:54;;;;;;;14.57;3.22;;;;;;;22.36;80.88;102021.56;5008415;28;20023;-71
2023/07/10 09:13:40;;;;;;;17.10;3.40;;;;;;;22.48;82.11;102022.16;5001245;28;20112;-71
2023/07/10 09:16:17;;;;;;;16.05;3.22;;;;;;;22.78;82.88;102017.72;5009961;28;20112;-70
2023/07/10 09:18:57;;;;;;;15.63;3.30;;;;;;;23.07;81.23;102019.56;5012134;28;20088;-70
2023/07/10 09:21:29;;;;;;;16.52;3.13;;;;;;;23.39;76.34;102020.44;5012366;28;20030;-70
2023/07/10 09:23:55;;;;;;;16.65;3.00;;;;;;;23.50;74.78;102020.09;5012461;28;20033;-69
2023/07/10 09:26:26;;;;;;;12.73;3.22;;;;;;;23.40;72.57;102018.63;5012527;28;20022;-70
2023/07/10 09:29:34;;;;;;;16.30;3.20;;;;;;;23.37;74.20;102027.69;5011937;28;20038;-70
2023/07/10 09:32:10;;;;;;;15.95;3.47;;;;;;;23.40;74.83;102024.94;5009199;28;20536;-63
2023/07/10 09:34:42;;;;;;;15.05;3.30;;;;;;;23.48;74.02;102017.47;5014424;28;20064;-65
2023/07/10 09:37:11;;;;;;;14.40;2.90;;;;;;;23.53;67.86;102016.44;5015897;28;20109;-71
2023/07/10 09:39:37;;;;;;;13.95;3.00;;;;;;;23.61;68.92;102015.25;5010968;28;20389;-72
2023/07/10 09:42:04;;;;;;;16.75;3.20;;;;;;;23.87;72.28;102021.66;5007287;28;20037;-69
2023/07/10 09:44:39;;;;;;;16.55;3.40;;;;;;;24.18;70.83;102026.03;5005062;28;20100;-72
2023/07/10 09:47:15;;;;;;;17.13;3.78;;;;;;;24.07;69.54;102022.81;5006658;28;20488;-72
2023/07/10 09:49:46;;;;;;;16.38;3.33;;;;;;;24.15;66.74;102023.44;5011740;28;20501;-70
2023/07/10 09:52:39;;;;;;;13.73;2.90;;;;;;;24.15;67.15;102009.94;5012278;28;20105;-73
2023/07/10 09:55:08;;;;;;;16.98;3.53;;;;;;;24.24;68.29;102020.41;5015322;28;20096;-72
2023/07/10 09:57:50;;;;;;;14.95;3.03;;;;;;;24.53;66.80;102024.78;5015641;28;20388;-67
2023/07/10 10:00:17;;;;;;;14.20;3.03;;;;;;;24.85;63.34;102027.28;5015638;28;20032;-67
2023/07/10 10:02:46;;;;;;;13.23;3.28;;;;;;;24.97;60.26;102029.53;5015351;28;20034;-65
2023/07/10 10:05:12;;;;;;;14.93;2.97;;;;;;;25.03;60.43;102017.59;5015394;28;20030;-68
2023/07/10 10:07:40;;;;;;;15.18;3.40;;;;;;;25.43;61.71;102013.38;5015486;28;20425;-67
2023/07/10 10:10:19;;;;;;;17.48;3.38;;;;;;;26.59;58.18;102012.13;5015257;28;20037;-68
2023/07/10 10:12:49;;;;;;;12.63;2.90;;;;;;;28.05;54.54;102014.31;5012004;28;20044;-68
2023/07/10 10:15:25;;;;;;;15.02;3.17;;;;;;;28.82;50.30;102012.13;5015193;28;20022;-67
2023/07/10 10:17:53;;;;;;;14.73;3.08;;;;;;;29.61;44.81;102010.50;4997382;28;20392;-69
2023/07/10 10:20:29;;;;;;;15.15;2.90;;;;;;;30.47;43.20;102019.03;5015287;28;20030;-68
2023/07/10 10:22:55;;;;;;;14.55;2.90;;;;;;;30.06;42.20;102017.81;5014964;28;20377;-68
2023/07/10 10:25:29;;;;;;;12.40;2.83;;;;;;;29.92;43.20;102016.91;5015011;28;20037;-67
2023/07/10 10:28:15;;;;;;;13.93;2.83;;;;;;;29.62;43.75;102012.22;5014871;28;20408;-67
2023/07/10 10:30:49;;;;;;;15.55;3.20;;;;;;;29.95;43.97;102003.94;5014722;28;20489;-67
2023/07/10 10:33:34;;;;;;;12.85;2.70;;;;;;;31.80;40.48;102013.28;5014973;28;20041;-69
2023/07/10 10:36:20;;;;;;;13.45;2.65;;;;;;;30.99;39.02;102014.88;5015021;28;20057;-69
2023/07/10 10:39:04;;;;;;;12.50;2.50;;;;;;;31.20;37.93;102009.03;5014888;28;20101;-68
2023/07/10 10:41:50;;;;;;;15.00;2.80;;;;;;;30.95;39.49;102006.00;4997208;28;20408;-68
2023/07/10 10:44:18;;;;;;;13.85;2.78;;;;;;;31.38;37.22;102006.94;5011628;28;20034;-66
2023/07/10 10:47:18;;;;;;;16.08;2.70;;;;;;;31.28;38.49;102017.59;5013423;28;20026;-65
2023/07/10 10:50:15;;;;;;;16.15;3.03;;;;;;;29.98;40.54;102011.06;5015010;28;20428;-68
2023/07/10 10:52:58;;;;;;;13.27;3.03;;;;;;;30.18;40.30;102009.88;4998357;28;20077;-68
2023/07/10 10:55:30;;;;;;;10.85;2.60;;;;;;;32.01;38.84;102012.81;5012493;28;20029;-68
2023/07/10 10:58:05;;;;;;;11.55;2.80;;;;;;;32.47;35.47;102018.72;5014481;28;20029;-68
2023/07/10 11:00:59;;;;;;;13.75;2.83;;;;;;;31.71;36.14;102024.84;5014273;28;20409;-67
2023/07/10 11:03:24;;;;;;;13.52;2.70;;;;;;;32.23;35.81;102032.25;5012541;28;20033;-68
2023/07/10 11:05:52;;;;;;;11.02;2.50;;;;;;;31.90;35.04;102029.94;5013980;28;20029;-68
2023/07/10 11:08:24;;;;;;;11.73;2.70;;;;;;;29.72;38.66;102029.78;5014027;28;20473;-69
2023/07/10 11:10:53;;;;;;;14.70;3.03;;;;;;;29.01;40.56;102023.78;5014183;28;20044;-68
2023/07/10 11:13:27;;;;;;;14.32;2.90;;;;;;;28.66;41.29;102020.25;5014065;28;20470;-69
2023/07/10 11:15:52;;;;;;;12.52;2.72;;;;;;;29.89;40.92;102018.81;5006550;28;20460;-63